Time;durP1;ratioP1;P1;durP2;ratioP2;P2;SDS_P1;SDS_P2;PMS_P1;PMS_P2;Temp;Humidity;BMP_temperature;BMP_pressure;BME280_temperature;BME280_humidity;BME280_pressure;Samples;Min_cycle;Max_cycle;Signal;HPM_P1;HPM_P2
2022/01/29 00:01:11;;;;;;;0.20;0.20;;;4.30;99.90;;;3.80;100.00;101984.38;4873673;29;20222;-81
2022/01/29 00:04:03;;;;;;;0.20;0.20;;;4.00;99.90;;;3.85;100.00;102001.25;4857717;29;20211;-81
2022/01/29 00:07:06;;;;;;;0.25;0.25;;;3.80;99.90;;;3.85;100.00;101997.75;4839257;29;20224;-81
2022/01/29 00:09:46;;;;;;;0.20;0.20;;;;;;;3.91;100.00;101999.88;4871129;29;20226;-81
2022/01/29 00:12:56;;;;;;;0.13;0.13;;;4.00;99.90;;;3.88;100.00;101986.56;4878357;29;20616;-81
2022/01/29 00:15:27;;;;;;;0.30;0.30;;;;;;;3.84;100.00;101986.38;4848323;29;20239;-82
2022/01/29 00:17:58;;;;;;;0.20;0.20;;;;;;;3.87;100.00;101988.28;4844606;29;20201;-81
2022/01/29 00:20:26;;;;;;;0.30;0.30;;;4.00;99.90;;;3.82;100.00;101968.78;4838498;29;20216;-81
2022/01/29 00:23:01;;;;;;;0.40;0.40;;;4.00;99.90;;;3.81;100.00;101978.34;4853620;29;20216;-81
2022/01/29 00:25:34;;;;;;;0.30;0.30;;;;;;;3.80;100.00;101973.91;4858461;29;20224;-81
2022/01/29 00:28:12;;;;;;;0.20;0.20;;;;;;;3.82;100.00;101979.25;4844686;29;20228;-81
2022/01/29 00:31:10;;;;;;;0.40;0.40;;;;;;;3.77;100.00;101952.78;4866268;29;20223;-81
2022/01/29 00:33:44;;;;;;;0.32;0.32;;;4.00;99.90;;;3.78;100.00;101959.84;4850302;29;20216;-81
2022/01/29 00:36:49;;;;;;;0.30;0.30;;;;;;;3.75;100.00;101946.56;4861739;29;20235;-81
2022/01/29 00:39:22;;;;;;;0.30;0.30;;;;;;;3.76;100.00;101942.22;4846338;29;20212;-81
2022/01/29 00:42:41;;;;;;;0.30;0.30;;;4.00;99.90;;;3.77;100.00;101958.03;4870423;29;20212;-81
2022/01/29 00:45:09;;;;;;;0.55;0.40;;;;;;;3.76;100.00;101958.84;4850252;29;20209;-81
2022/01/29 00:47:38;;;;;;;0.35;0.35;;;;;;;3.80;100.00;101963.44;4848352;29;20216;-81
2022/01/29 00:50:09;;;;;;;0.30;0.30;;;4.00;99.90;;;3.75;100.00;101945.66;4850032;29;20236;-81
2022/01/29 00:52:43;;;;;;;0.20;0.20;;;;;;;3.73;100.00;101935.09;4845954;29;20740;-81
2022/01/29 00:55:25;;;;;;;0.32;0.32;;;;;;;3.76;100.00;101930.06;4840882;29;20229;-81
2022/01/29 00:58:13;;;;;;;0.25;0.25;;;3.90;99.90;;;3.74;100.00;101926.44;4843081;29;20216;-81
2022/01/29 01:00:58;;;;;;;0.20;0.20;;;3.90;99.90;;;3.79;100.00;101926.72;4865816;29;20215;-81
2022/01/29 01:03:43;;;;;;;0.20;0.20;;;;;;;3.73;100.00;101913.28;4855344;29;20470;-81
2022/01/29 01:06:25;;;;;;;0.30;0.30;;;3.90;99.90;;;3.77;100.00;101916.16;4835199;29;20243;-82
2022/01/29 01:09:10;;;;;;;0.20;0.20;;;;;;;3.75;100.00;101911.66;4850023;29;20228;-82
2022/01/29 01:11:42;;;;;;;0.22;0.22;;;4.00;99.90;;;3.74;100.00;101915.97;4851398;29;20211;-81
2022/01/29 01:14:45;;;;;;;0.25;0.25;;;;;;;3.75;100.00;101907.31;4843324;29;20216;-81
2022/01/29 01:17:54;;;;;;;0.30;0.30;;;3.90;99.90;;;3.74;100.00;101908.13;4862558;29;20220;-82
2022/01/29 01:20:32;;;;;;;0.10;0.10;;;3.90;99.90;;;3.71;100.00;101900.09;4847365;29;20209;-81
2022/01/29 01:23:28;;;;;;;0.45;0.45;;;3.90;99.90;;;3.75;100.00;101903.78;4875993;29;20208;-82
2022/01/29 01:31:33;;;;;;;0.22;0.22;;;4.00;99.90;;;3.72;100.00;101893.16;4857739;29;20225;-81
2022/01/29 01:35:10;;;;;;;0.43;0.40;;;4.00;99.90;;;3.63;100.00;101890.88;4863662;29;20212;-81
2022/01/29 01:42:51;;;;;;;0.20;0.20;;;3.90;99.90;;;3.62;100.00;101898.63;4806224;29;20215;-81
2022/01/29 01:49:44;;;;;;;0.30;0.30;;;3.50;99.90;;;3.59;100.00;101894.13;4862394;29;20244;-81
2022/01/29 01:52:17;;;;;;;0.20;0.20;;;3.80;99.90;;;3.57;100.00;101882.66;4849474;29;20224;-81
2022/01/29 01:55:08;;;;;;;0.20;0.20;;;3.80;99.90;;;3.54;100.00;101887.72;4848676;29;20216;-82
2022/01/29 01:57:42;;;;;;;0.28;0.28;;;3.80;99.90;;;3.50;100.00;101883.09;4876645;29;20212;-81
2022/01/29 02:00:21;;;;;;;0.10;0.10;;;3.80;99.90;;;3.50;100.00;101880.50;4862830;29;20209;-82
2022/01/29 02:03:16;;;;;;;0.20;0.20;;;3.80;99.90;;;3.46;100.00;101876.78;4867505;29;20231;-81
2022/01/29 02:06:41;;;;;;;0.20;0.20;;;3.80;99.90;;;3.41;100.00;101867.75;4885798;24;20230;-81
2022/01/29 02:09:24;;;;;;;0.10;0.10;;;3.70;99.90;;;3.39;100.00;101855.41;4919960;29;20223;-81
2022/01/29 02:12:29;;;;;;;0.20;0.20;;;3.70;99.90;;;3.37;100.00;101857.94;4932588;29;20203;-81
2022/01/29 02:15:54;;;;;;;0.20;0.20;;;3.70;99.90;;;3.38;100.00;101861.44;4921055;29;20223;-81
2022/01/29 02:18:54;;;;;;;0.20;0.20;;;3.30;99.90;;;3.34;100.00;101852.50;4896975;29;20207;-81
2022/01/29 02:22:33;;;;;;;0.20;0.20;;;3.60;99.90;;;3.33;100.00;101855.03;4879240;29;20207;-81
2022/01/29 02:27:01;;;;;;;0.20;0.20;;;3.70;99.90;;;3.34;100.00;101851.63;4905648;29;20234;-81
2022/01/29 02:31:07;;;;;;;0.20;0.20;;;3.60;99.90;;;3.31;100.00;101844.47;4862148;29;20243;-81
2022/01/29 02:34:08;;;;;;;0.30;0.30;;;;;;;3.28;100.00;101839.06;4893911;29;20214;-81
2022/01/29 02:36:42;;;;;;;0.20;0.20;;;;;;;3.28;100.00;101838.16;4867848;29;20234;-81
2022/01/29 02:40:22;;;;;;;0.20;0.20;;;3.50;99.90;;;3.28;100.00;101830.31;4902140;29;20211;-81
2022/01/29 02:44:23;;;;;;;0.10;0.10;;;3.50;99.90;;;3.27;100.00;101828.53;4903729;29;20215;-81
2022/01/29 02:48:04;;;;;;;;;;;;;;;;;;;;;
2022/01/29 02:51:29;;;;;;;0.30;0.30;;;3.50;99.90;;;3.19;100.00;101828.06;4900709;29;20214;-82
2022/01/29 02:55:29;;;;;;;;;;;;;;;;;;;;;
2022/01/29 02:59:51;;;;;;;0.20;0.20;;;3.50;99.90;;;3.14;100.00;101819.94;4877463;29;20216;-81
2022/01/29 03:04:03;;;;;;;;;;;;;;;;;;;;;
2022/01/29 03:08:33;;;;;;;0.20;0.20;;;3.40;99.90;;;3.12;100.00;101816.31;4949620;23;20214;-81
2022/01/29 03:12:25;;;;;;;;;;;;;;;;;;;;;
2022/01/29 03:15:57;;;;;;;0.20;0.20;;;3.40;99.90;;;3.08;100.00;101816.94;4911535;29;20230;-82
2022/01/29 03:19:40;;;;;;;0.20;0.20;;;3.40;99.90;;;3.05;100.00;101797.56;4912519;29;20219;-81
2022/01/29 03:22:23;;;;;;;0.20;0.20;;;3.40;99.90;;;3.05;100.00;101808.00;4905206;29;20217;-81
2022/01/29 03:25:09;;;;;;;0.10;0.10;;;3.40;99.90;;;3.04;100.00;101800.97;4904844;29;20210;-81
2022/01/29 03:29:09;;;;;;;0.20;0.20;;;2.20;99.90;;;3.03;100.00;101789.63;4908375;29;20226;-81
2022/01/29 03:32:09;;;;;;;0.20;0.20;;;3.30;99.90;;;3.00;100.00;101776.38;4896471;29;20208;-81
2022/01/29 03:35:16;;;;;;;0.10;0.10;;;3.30;99.90;;;3.02;100.00;101779.09;4905129;29;20207;-81
2022/01/29 03:39:12;;;;;;;0.20;0.20;;;3.30;99.90;;;3.04;100.00;101786.22;4928092;29;20202;-82
2022/01/29 03:41:46;;;;;;;0.20;0.20;;;3.30;99.90;;;3.05;100.00;101784.50;4902864;29;20211;-81
2022/01/29 03:45:08;;;;;;;0.10;0.10;;;;;;;3.11;100.00;101792.72;4921306;29;20206;-81
2022/01/29 03:48:16;;;;;;;0.20;0.20;;;3.40;99.90;;;3.12;100.00;101784.06;4918701;29;20205;-81
2022/01/29 03:50:54;;;;;;;0.20;0.20;;;;;;;3.20;100.00;101786.31;4902484;29;20245;-81
2022/01/29 03:53:57;;;;;;;0.20;0.20;;;3.40;99.90;;;3.12;100.00;101769.28;4858983;29;20219;-81
2022/01/29 03:56:40;;;;;;;0.20;0.20;;;3.40;99.90;;;3.12;100.00;101773.59;4849017;29;20235;-81
2022/01/29 03:59:17;;;;;;;0.20;0.20;;;2.90;99.90;;;3.28;100.00;101799.84;4847670;29;20219;-82
2022/01/29 04:01:48;;;;;;;0.20;0.20;;;3.40;99.90;;;3.35;100.00;101790.66;4849733;29;20215;-81
2022/01/29 04:09:28;;;;;;;0.13;0.13;;;3.50;99.90;;;3.20;100.00;101761.88;4930627;29;20210;-81
2022/01/29 04:12:57;;;;;;;0.20;0.20;;;3.40;99.90;;;3.32;100.00;101766.94;4930823;29;20194;-81
2022/01/29 04:19:51;;;;;;;0.20;0.20;;;3.50;99.90;;;3.21;100.00;101714.03;4930188;29;20201;-81
2022/01/29 04:27:16;;;;;;;0.20;0.20;;;3.40;99.90;;;3.18;100.00;101756.56;4898522;29;20227;-81
2022/01/29 04:30:23;;;;;;;0.20;0.20;;;3.00;99.90;;;3.21;100.00;101775.06;4886118;29;20230;-81
2022/01/29 04:35:20;;;;;;;0.20;0.20;;;3.50;99.90;;;3.32;100.00;101795.72;4918848;29;20242;-81
2022/01/29 04:37:50;;;;;;;0.20;0.20;;;3.50;99.90;;;3.37;100.00;101796.88;4918873;29;20214;-81
2022/01/29 04:40:19;;;;;;;0.20;0.20;;;3.50;99.90;;;3.43;100.00;101787.69;4900252;29;20215;-82
2022/01/29 04:42:47;;;;;;;0.30;0.30;;;3.60;99.90;;;3.59;100.00;101784.25;4901918;29;20207;-81
2022/01/29 04:45:16;;;;;;;0.20;0.20;;;;;;;3.63;100.00;101762.69;4918227;29;20234;-81
2022/01/29 04:47:43;;;;;;;0.20;0.20;;;3.70;99.90;;;3.61;100.00;101753.84;4885713;29;20207;-81
2022/01/29 04:50:15;;;;;;;0.20;0.20;;;3.70;99.90;;;3.57;100.00;101727.44;4916401;29;20230;-81
2022/01/29 04:52:43;;;;;;;0.20;0.20;;;3.80;99.90;;;3.56;100.00;101723.03;4897029;29;20202;-81
2022/01/29 04:55:11;;;;;;;0.30;0.30;;;3.70;99.90;;;3.55;100.00;101698.56;4898349;29;20202;-81
2022/01/29 04:57:41;;;;;;;0.20;0.20;;;;;;;3.68;100.00;101700.16;4902159;29;20213;-82
2022/01/29 05:00:19;;;;;;;0.20;0.20;;;3.80;99.90;;;3.67;100.00;101714.97;4880950;29;20222;-81
2022/01/29 05:02:53;;;;;;;0.40;0.40;;;3.80;99.90;;;3.68;100.00;101721.09;4912605;29;20238;-81
2022/01/29 05:05:22;;;;;;;0.30;0.30;;;3.80;99.90;;;3.67;100.00;101727.16;4883839;29;20218;-81
2022/01/29 05:07:53;;;;;;;0.20;0.20;;;;;;;3.64;100.00;101709.56;4917665;29;20225;-81
2022/01/29 05:10:22;;;;;;;0.22;0.22;;;3.80;99.90;;;3.65;100.00;101708.75;4901784;29;20226;-82
2022/01/29 05:12:59;;;;;;;0.20;0.20;;;;;;;3.64;100.00;101711.28;4917072;29;20234;-81
2022/01/29 05:29:14;;;;;;;0.30;0.30;;;3.60;99.90;;;3.32;100.00;101694.63;4923609;29;20686;-81
2022/01/29 05:31:42;;;;;;;0.20;0.20;;;3.60;99.90;;;3.32;100.00;101699.88;4905704;29;20234;-81
2022/01/29 05:34:11;;;;;;;0.10;0.10;;;3.60;99.90;;;3.29;100.00;101704.91;4920609;29;20211;-81
2022/01/29 05:36:38;;;;;;;0.30;0.30;;;3.60;99.90;;;3.29;100.00;101707.53;4898536;29;20239;-82
2022/01/29 05:39:06;;;;;;;0.28;0.28;;;4.10;99.90;;;3.26;100.00;101715.19;4921351;29;20218;-81
2022/01/29 05:41:34;;;;;;;0.20;0.20;;;3.60;99.90;;;3.25;100.00;101729.06;4922445;29;20202;-81
2022/01/29 05:44:03;;;;;;;0.30;0.30;;;3.60;99.90;;;3.26;100.00;101733.50;4936433;29;20214;-81
2022/01/29 05:46:32;;;;;;;0.30;0.30;;;;;;;3.25;100.00;101729.06;4902434;29;20242;-81
2022/01/29 05:49:00;;;;;;;0.30;0.30;;;;;;;3.20;100.00;101728.81;4904554;29;20215;-81
2022/01/29 05:52:02;;;;;;;0.40;0.40;;;3.50;99.90;;;3.22;100.00;101731.50;4919577;29;20274;-81
2022/01/29 05:55:58;;;;;;;2.05;0.88;;;3.50;99.90;;;3.16;100.00;101723.31;4916361;29;20218;-81
2022/01/29 05:58:43;;;;;;;0.30;0.30;;;;;;;3.12;100.00;101719.63;4900625;29;20207;-81
2022/01/29 06:01:11;;;;;;;0.57;0.57;;;;;;;3.12;100.00;101723.94;4903793;29;20206;-80
2022/01/29 06:05:03;;;;;;;0.30;0.30;;;3.40;99.90;;;3.08;100.00;101711.50;4903587;29;20214;-81
2022/01/29 06:07:45;;;;;;;0.75;0.55;;;;;;;3.05;100.00;101716.53;4922812;29;20225;-81
2022/01/29 06:16:11;;;;;;;1.08;0.75;;;3.30;99.90;;;3.02;100.00;101718.97;4905742;29;20234;-82
2022/01/29 06:19:02;;;;;;;0.20;0.20;;;;;;;2.99;100.00;101714.47;4902917;29;20207;-81
2022/01/29 06:21:32;;;;;;;0.20;0.20;;;;;;;3.00;100.00;101717.97;4888547;29;20203;-80
2022/01/29 06:28:01;;;;;;;0.20;0.20;;;3.20;99.90;;;2.93;100.00;101707.97;4910940;29;20683;-80
2022/01/29 06:30:30;;;;;;;0.20;0.20;;;3.20;99.90;;;2.91;100.00;101714.81;4918559;29;20211;-81
2022/01/29 06:33:10;;;;;;;0.10;0.10;;;3.20;99.90;;;2.91;100.00;101718.34;4883829;29;20199;-81
2022/01/29 06:35:42;;;;;;;0.20;0.20;;;3.20;99.90;;;2.87;100.00;101704.19;4914190;29;20227;-82
2022/01/29 06:38:13;;;;;;;0.20;0.20;;;3.10;99.90;;;2.88;100.00;101705.09;4917488;29;20206;-82
2022/01/29 06:40:43;;;;;;;0.20;0.20;;;3.10;99.90;;;2.88;100.00;101716.44;4917755;29;20245;-81
2022/01/29 06:43:11;;;;;;;0.10;0.10;;;3.20;99.90;;;2.86;100.00;101719.78;4882340;29;20227;-83
2022/01/29 06:45:52;;;;;;;0.10;0.10;;;3.20;99.90;;;2.86;100.00;101719.78;4894756;29;20226;-83
2022/01/29 06:51:49;;;;;;;0.10;0.10;;;;;;;2.86;100.00;101723.28;4919965;29;20226;-82
2022/01/29 06:54:17;;;;;;;0.20;0.20;;;3.10;99.90;;;2.82;100.00;101713.47;4906370;29;20207;-81
2022/01/29 06:56:46;;;;;;;0.20;0.20;;;;;;;2.79;100.00;101718.50;4904363;29;20235;-81
2022/01/29 06:59:13;;;;;;;0.10;0.10;;;3.20;99.90;;;2.79;100.00;101708.03;4917612;29;20702;-82
2022/01/29 07:01:54;;;;;;;0.15;0.15;;;;;;;2.77;100.00;101706.16;4935401;29;20211;-81
2022/01/29 07:04:21;;;;;;;0.10;0.10;;;3.10;99.90;;;2.76;100.00;101717.41;4902500;29;20217;-80
2022/01/29 07:06:50;;;;;;;0.20;0.20;;;3.00;99.90;;;2.75;100.00;101729.56;4914908;29;20226;-80
2022/01/29 07:09:18;;;;;;;0.20;0.20;;;3.10;99.90;;;2.76;100.00;101725.25;4893437;29;20225;-81
2022/01/29 07:11:47;;;;;;;0.10;0.10;;;3.20;99.90;;;2.80;100.00;101732.47;4902492;29;20223;-81
2022/01/29 07:14:17;;;;;;;0.20;0.20;;;3.10;99.90;;;2.78;100.00;101728.84;4905933;29;20229;-82
2022/01/29 07:16:45;;;;;;;0.10;0.10;;;3.50;99.90;;;2.77;100.00;101727.06;4931264;29;20238;-81
2022/01/29 07:19:40;;;;;;;0.10;0.10;;;3.10;99.90;;;2.78;100.00;101721.00;4902418;29;20221;-81
2022/01/29 07:22:09;;;;;;;0.10;0.10;;;3.10;99.90;;;2.82;100.00;101728.22;4900733;29;20210;-81
2022/01/29 07:24:38;;;;;;;0.10;0.10;;;3.10;99.90;;;2.83;100.00;101740.47;4914664;29;20211;-81
2022/01/29 07:27:11;;;;;;;0.20;0.20;;;3.30;99.90;;;2.86;100.00;101746.78;4901638;29;20238;-81
2022/01/29 07:29:40;;;;;;;0.10;0.10;;;3.10;99.90;;;2.91;100.00;101746.19;4902276;29;20206;-81
2022/01/29 07:32:08;;;;;;;0.20;0.20;;;3.10;99.90;;;2.88;100.00;101745.19;4918670;29;20249;-81
2022/01/29 07:34:37;;;;;;;0.10;0.10;;;3.20;99.90;;;2.91;100.00;101747.06;4918460;29;20206;-83
2022/01/29 07:37:05;;;;;;;0.20;0.20;;;3.20;99.90;;;2.93;100.00;101744.56;4907551;24;20236;-79
2022/01/29 07:39:36;;;;;;;0.20;0.20;;;3.20;99.90;;;2.95;100.00;101749.06;4890738;29;20204;-79
2022/01/29 07:42:08;;;;;;;0.17;0.17;;;3.20;99.90;;;2.97;100.00;101744.84;4889740;29;20727;-79
2022/01/29 07:44:36;;;;;;;0.10;0.10;;;3.20;99.90;;;3.01;100.00;101748.53;4876430;29;20228;-81
2022/01/29 07:47:05;;;;;;;0.20;0.20;;;3.20;99.90;;;3.04;100.00;101753.94;4876718;29;20231;-81
2022/01/29 07:49:33;;;;;;;0.20;0.20;;;3.30;99.90;;;3.06;100.00;101748.00;4851425;29;20212;-82
2022/01/29 07:52:01;;;;;;;0.20;0.20;;;3.30;99.90;;;3.08;100.00;101751.59;4860588;29;20215;-81
2022/01/29 07:54:29;;;;;;;0.20;0.20;;;3.30;99.90;;;3.08;100.00;101740.25;4891848;29;20219;-81
2022/01/29 07:56:58;;;;;;;0.22;0.22;;;3.40;99.90;;;3.10;100.00;101759.53;4846198;29;20242;-81
2022/01/29 07:59:26;;;;;;;0.20;0.20;;;3.40;99.90;;;3.11;100.00;101763.94;4846429;29;20210;-81
2022/01/29 08:01:59;;;;;;;0.20;0.20;;;3.30;99.90;;;3.10;100.00;101755.22;4880184;29;20211;-80
2022/01/29 08:04:42;;;;;;;0.20;0.20;;;3.40;99.90;;;3.10;100.00;101743.84;4891738;29;20223;-81
2022/01/29 08:07:14;;;;;;;0.20;0.20;;;3.40;99.90;;;3.12;100.00;101747.47;4894538;29;20232;-81
2022/01/29 08:09:43;;;;;;;0.10;0.10;;;;;;;3.20;100.00;101744.50;4893116;29;20247;-80
2022/01/29 08:12:15;;;;;;;0.20;0.20;;;3.40;99.90;;;3.24;100.00;101747.28;4908072;29;20235;-80
2022/01/29 08:14:43;;;;;;;0.20;0.20;;;3.50;99.90;;;3.26;100.00;101743.06;4878583;29;20204;-81
2022/01/29 08:17:11;;;;;;;0.10;0.10;;;3.50;99.90;;;3.33;100.00;101745.22;4879799;29;20238;-81
2022/01/29 08:19:39;;;;;;;0.20;0.20;;;3.50;99.90;;;3.35;100.00;101739.25;4894063;29;20211;-80
2022/01/29 08:22:07;;;;;;;0.10;0.10;;;3.50;99.90;;;3.43;100.00;101747.56;4859955;29;20215;-81
2022/01/29 08:24:35;;;;;;;0.10;0.10;;;3.70;99.90;;;3.47;100.00;101745.22;4894881;29;20204;-80
2022/01/29 08:27:03;;;;;;;0.20;0.20;;;3.70;99.90;;;3.54;100.00;101749.97;4895452;29;20239;-80
2022/01/29 08:29:31;;;;;;;0.15;0.15;;;3.70;99.90;;;3.62;100.00;101745.19;4895065;29;20220;-80
2022/01/29 08:31:59;;;;;;;0.20;0.20;;;3.80;99.90;;;3.72;100.00;101760.63;4878357;29;20220;-80
2022/01/29 08:34:27;;;;;;;0.10;0.10;;;3.80;99.90;;;3.74;100.00;101739.75;4863556;29;20212;-80
2022/01/29 08:36:58;;;;;;;0.10;0.10;;;3.90;99.90;;;3.82;100.00;101748.97;4877504;29;20287;-80
2022/01/29 08:39:26;;;;;;;0.10;0.10;;;3.90;99.90;;;3.88;100.00;101745.78;4892681;29;20677;-80
2022/01/29 08:41:55;;;;;;;0.17;0.17;;;3.90;99.90;;;3.92;100.00;101753.94;4877171;29;20211;-81
2022/01/29 08:44:23;;;;;;;0.10;0.10;;;4.00;99.90;;;4.00;100.00;101746.50;4863627;29;20215;-83
2022/01/29 08:47:18;;;;;;;0.10;0.10;;;4.10;99.90;;;4.04;100.00;101740.63;4878690;29;20239;-80
2022/01/29 08:49:47;;;;;;;0.10;0.10;;;4.10;99.90;;;4.17;100.00;101736.16;4900771;29;20217;-81
2022/01/29 08:52:14;;;;;;;0.10;0.10;;;4.30;99.90;;;4.20;100.00;101735.44;4890111;29;20235;-80
2022/01/29 08:54:42;;;;;;;0.10;0.10;;;4.30;99.90;;;4.16;100.00;101723.00;4863136;29;20656;-82
2022/01/29 08:57:10;;;;;;;0.10;0.10;;;4.30;99.90;;;4.11;100.00;101708.75;4883273;29;20243;-80
2022/01/29 08:59:38;;;;;;;0.10;0.10;;;4.30;99.90;;;4.12;100.00;101713.16;4857090;29;20211;-80
2022/01/29 09:02:06;;;;;;;0.10;0.10;;;4.30;99.90;;;4.08;100.00;101712.09;4888914;29;20223;-81
2022/01/29 09:04:34;;;;;;;0.20;0.20;;;4.30;99.90;;;4.06;100.00;101703.25;4870944;29;20208;-80
2022/01/29 09:07:06;;;;;;;0.15;0.15;;;4.30;99.90;;;3.97;100.00;101697.50;4869438;29;20232;-79
2022/01/29 09:09:40;;;;;;;0.20;0.20;;;4.30;99.90;;;3.97;100.00;101700.13;4862702;29;20205;-80
2022/01/29 09:12:08;;;;;;;0.10;0.10;;;4.20;99.90;;;3.93;100.00;101698.16;4885872;29;20227;-79
2022/01/29 09:14:36;;;;;;;0.10;0.10;;;4.20;99.90;;;3.94;100.00;101704.28;4897350;29;20228;-79
2022/01/29 09:17:04;;;;;;;0.10;0.10;;;4.20;99.90;;;3.90;100.00;101699.66;4883908;29;20230;-77
2022/01/29 09:19:32;;;;;;;0.10;0.10;;;4.20;99.90;;;3.93;100.00;101699.88;4870041;29;20215;-78
2022/01/29 09:22:01;;;;;;;0.17;0.17;;;4.20;99.90;;;3.99;100.00;101698.50;4858766;29;20208;-78
2022/01/29 09:24:29;;;;;;;0.45;0.45;;;4.20;99.90;;;4.03;100.00;101708.31;4856272;29;20207;-78
2022/01/29 09:26:59;;;;;;;0.10;0.10;;;4.30;99.90;;;4.06;100.00;101702.34;4895526;29;20229;-78
2022/01/29 09:29:27;;;;;;;0.10;0.10;;;4.30;99.90;;;4.07;100.00;101710.28;4867343;29;20211;-77
2022/01/29 09:31:55;;;;;;;0.10;0.10;;;4.30;99.90;;;4.09;100.00;101708.66;4882989;29;20232;-77
2022/01/29 09:34:24;;;;;;;0.10;0.10;;;4.30;99.90;;;4.18;100.00;101721.34;4877636;29;20669;-80
2022/01/29 09:41:56;;;;;;;0.10;0.10;;;4.30;99.90;;;3.92;100.00;101703.31;4858855;29;20220;-79
2022/01/29 09:44:34;;;;;;;0.13;0.13;;;4.30;99.90;;;3.62;100.00;101678.91;4867021;29;20212;-79
2022/01/29 09:47:17;;;;;;;0.75;0.75;;;4.20;99.90;;;3.52;100.00;101686.22;4902277;29;20233;-79
2022/01/29 09:49:45;;;;;;;0.10;0.10;;;4.10;99.90;;;3.51;100.00;101692.25;4869205;29;20243;-79
2022/01/29 09:52:35;;;;;;;0.10;0.10;;;4.00;99.90;;;3.36;100.00;101696.63;4897196;29;20234;-80
2022/01/29 09:55:07;;;;;;;0.15;0.15;;;3.90;99.90;;;3.34;100.00;101703.47;4883911;29;20223;-79
2022/01/29 09:57:36;;;;;;;0.10;0.10;;;3.80;99.90;;;3.38;100.00;101715.91;4882310;29;20235;-79
2022/01/29 10:00:07;;;;;;;0.10;0.10;;;3.80;99.90;;;3.34;100.00;101719.16;4890391;29;20228;-79
2022/01/29 10:02:39;;;;;;;0.10;0.10;;;3.80;99.90;;;3.39;100.00;101735.13;4899481;29;20230;-79
2022/01/29 10:05:12;;;;;;;0.35;0.35;;;3.80;99.90;;;3.36;100.00;101724.47;4871214;29;20223;-81
2022/01/29 10:07:40;;;;;;;0.20;0.20;;;3.80;99.90;;;3.28;100.00;101728.34;4879203;29;20224;-79
2022/01/29 10:10:18;;;;;;;0.10;0.10;;;3.80;99.90;;;3.25;100.00;101729.06;4853619;29;20733;-79
2022/01/29 10:12:47;;;;;;;0.10;0.10;;;3.80;99.90;;;3.28;100.00;101731.88;4919463;29;20223;-79
2022/01/29 10:15:15;;;;;;;0.10;0.10;;;3.70;99.90;;;3.34;100.00;101753.16;4900698;29;20595;-78
2022/01/29 10:17:50;;;;;;;0.40;0.40;;;3.70;99.90;;;3.29;100.00;101728.44;4874104;29;20220;-79
2022/01/29 10:20:28;;;;;;;0.13;0.13;;;3.70;99.90;;;3.32;100.00;101746.03;4892517;29;20219;-79
2022/01/29 10:23:00;;;;;;;0.20;0.20;;;3.70;99.90;;;3.22;100.00;101728.91;4870011;29;20205;-81
2022/01/29 10:25:34;;;;;;;0.10;0.10;;;3.70;99.90;;;3.25;100.00;101733.41;4889474;29;20212;-79
2022/01/29 10:28:17;;;;;;;0.10;0.10;;;3.70;99.90;;;3.20;100.00;101720.06;4882062;29;20242;-78
2022/01/29 10:30:51;;;;;;;0.10;0.10;;;3.60;99.90;;;3.37;100.00;101735.03;4888135;29;20204;-81
2022/01/29 10:33:38;;;;;;;0.20;0.20;;;3.70;99.90;;;3.30;100.00;101730.25;4901933;29;20224;-78
2022/01/29 10:36:14;;;;;;;0.20;0.20;;;3.70;99.90;;;3.35;100.00;101739.25;4902150;29;20208;-81
2022/01/29 10:38:53;;;;;;;0.10;0.10;;;3.70;99.90;;;3.33;100.00;101743.50;4909134;29;20212;-81
2022/01/29 10:41:26;;;;;;;0.20;0.20;;;3.70;99.90;;;3.38;100.00;101736.84;4895698;29;21159;-81
2022/01/29 10:44:11;;;;;;;0.10;0.10;;;3.70;99.90;;;3.42;100.00;101738.81;4863639;29;20243;-81
2022/01/29 10:46:44;;;;;;;0.10;0.10;;;3.80;99.90;;;3.42;100.00;101728.34;4886769;29;20241;-78
2022/01/29 10:49:32;;;;;;;0.20;0.20;;;3.80;99.90;;;3.45;100.00;101725.91;4917677;29;20215;-82
2022/01/29 10:52:06;;;;;;;0.17;0.17;;;3.80;99.90;;;3.49;100.00;101724.38;4872763;29;20224;-81
2022/01/29 10:54:51;;;;;;;0.20;0.20;;;3.80;99.90;;;3.54;100.00;101718.59;4872083;29;20232;-79
2022/01/29 10:57:19;;;;;;;0.10;0.10;;;3.90;99.90;;;3.52;100.00;101714.09;4881158;29;20239;-79
2022/01/29 10:59:52;;;;;;;0.10;0.10;;;3.80;99.90;;;3.64;100.00;101721.75;4871082;29;20208;-78
2022/01/29 11:02:24;;;;;;;0.10;0.10;;;4.00;99.90;;;3.69;100.00;101717.66;4858280;29;20224;-78
2022/01/29 11:04:54;;;;;;;0.20;0.20;;;4.00;99.90;;;3.72;100.00;101720.47;4882106;29;20220;-78
2022/01/29 11:07:27;;;;;;;0.10;0.10;;;4.00;99.90;;;3.73;100.00;101715.31;4868504;29;20225;-78
2022/01/29 11:10:02;;;;;;;0.32;0.32;;;4.10;99.90;;;3.83;100.00;101721.97;4864301;29;20211;-79
2022/01/29 11:12:38;;;;;;;0.20;0.20;;;4.10;99.90;;;3.70;100.00;101693.31;4865910;29;20295;-79
2022/01/29 11:15:07;;;;;;;0.20;0.20;;;4.20;99.90;;;3.69;100.00;101691.50;4890996;29;20211;-80
2022/01/29 11:17:35;;;;;;;0.10;0.10;;;4.10;99.90;;;3.77;100.00;101695.47;4856306;29;20228;-79
2022/01/29 11:20:04;;;;;;;0.10;0.10;;;4.10;99.90;;;3.76;100.00;101696.28;4891723;29;20219;-79
2022/01/29 11:22:40;;;;;;;0.20;0.20;;;4.10;99.90;;;3.87;100.00;101708.25;4886966;29;20204;-79
2022/01/29 11:25:16;;;;;;;0.20;0.20;;;4.20;99.90;;;3.89;100.00;101705.72;4882887;29;20677;-79
2022/01/29 11:27:45;;;;;;;0.10;0.10;;;4.30;99.90;;;4.07;100.00;101717.25;4873222;29;20230;-78
2022/01/29 11:30:15;;;;;;;0.20;0.20;;;4.30;99.90;;;3.93;100.00;101694.63;4881924;29;20201;-78
2022/01/29 11:32:46;;;;;;;0.10;0.10;;;4.30;99.90;;;4.05;100.00;101704.06;4899005;29;20219;-78
2022/01/29 11:35:29;;;;;;;0.20;0.20;;;4.40;99.90;;;4.10;100.00;101704.31;4858261;29;20244;-79
2022/01/29 11:38:08;;;;;;;0.10;0.10;;;4.40;99.90;;;4.15;100.00;101693.28;4884294;29;20227;-79
2022/01/29 11:41:02;;;;;;;0.00;0.00;;;4.50;99.90;;;4.15;100.00;101685.44;4908268;29;20200;-79
2022/01/29 11:43:34;;;;;;;0.08;0.08;;;4.50;99.90;;;4.16;100.00;101678.47;4897961;29;20211;-79
2022/01/29 11:46:31;;;;;;;0.10;0.10;;;4.50;99.90;;;4.22;100.00;101673.56;4875254;29;20215;-80
2022/01/29 11:49:19;;;;;;;0.52;0.52;;;4.60;99.90;;;4.33;100.00;101663.69;4871308;29;20208;-80
2022/01/29 11:51:52;;;;;;;0.20;0.20;;;4.60;99.90;;;4.38;100.00;101678.81;4856624;29;20208;-80
2022/01/29 11:54:26;;;;;;;0.10;0.10;;;4.70;99.90;;;4.44;100.00;101662.53;4896780;29;20234;-81
2022/01/29 11:57:14;;;;;;;0.10;0.10;;;4.70;99.90;;;4.37;100.00;101642.97;4883604;29;20235;-79
2022/01/29 11:59:44;;;;;;;0.63;0.63;;;4.80;99.90;;;4.39;100.00;101645.66;4883510;29;20212;-79
2022/01/29 12:02:15;;;;;;;0.10;0.10;;;4.80;99.90;;;4.33;100.00;101633.16;4883120;29;20215;-80
2022/01/29 12:04:51;;;;;;;0.20;0.20;;;4.80;99.90;;;4.27;100.00;101624.06;4896767;29;20212;-79
2022/01/29 12:07:31;;;;;;;0.10;0.10;;;4.70;99.90;;;4.25;100.00;101629.22;4883556;29;20232;-79
2022/01/29 12:10:11;;;;;;;0.20;0.20;;;4.70;99.90;;;4.24;100.00;101616.06;4857397;29;20216;-79
2022/01/29 12:12:44;;;;;;;0.10;0.10;;;4.70;99.90;;;4.27;100.00;101619.72;4892179;29;20218;-77
2022/01/29 12:15:12;;;;;;;0.10;0.10;;;4.70;99.90;;;4.23;100.00;101616.88;4900406;29;20235;-79
2022/01/29 12:17:58;;;;;;;0.10;0.10;;;4.60;99.90;;;4.31;100.00;101624.31;4901860;29;20236;-79
2022/01/29 12:20:28;;;;;;;0.10;0.10;;;4.70;99.90;;;4.35;100.00;101628.91;4874317;29;20195;-79
2022/01/29 12:23:03;;;;;;;0.10;0.10;;;4.70;99.90;;;4.40;100.00;101609.09;4884353;29;20224;-79
2022/01/29 12:25:31;;;;;;;0.10;0.10;;;4.70;99.90;;;4.46;100.00;101611.13;4881658;29;20211;-79
2022/01/29 12:28:03;;;;;;;0.10;0.10;;;4.80;99.90;;;4.46;100.00;101601.53;4863021;29;20230;-79
2022/01/29 12:30:37;;;;;;;0.55;0.55;;;4.80;99.90;;;4.42;100.00;101590.81;4881771;29;20226;-80
2022/01/29 12:33:20;;;;;;;0.10;0.10;;;4.90;99.90;;;4.49;100.00;101600.81;4895304;29;20210;-79
2022/01/29 12:35:58;;;;;;;0.20;0.20;;;4.90;99.90;;;4.63;100.00;101596.28;4891901;29;20216;-78
2022/01/29 12:38:42;;;;;;;0.10;0.10;;;4.80;99.90;;;4.94;100.00;101610.13;4885904;29;20242;-78
2022/01/29 12:41:25;;;;;;;0.10;0.10;;;5.00;99.90;;;5.06;100.00;101595.00;4867916;29;20215;-78